Shippingport, Pennsylvania
Current Conditions -  °F | °C
As of 9:47 AM on Wednesday 22 Oct 2014 (Local Time) from KBVI Reporting Station
Overcast Overcast  
Wind Chill: 41°   Ceiling: 800
Heat Index: 46°   Visibility: 10mi
Dew Point: 43°   Wind: 10mph
Humidity: 87%   Direction: 350°N
Pressure: 30.16"   Gusts: NA
Location:  40.63°N, 80.41°W
Report Text: KBVI 221347Z 35009KT 10SM OVC008 08/06 A3016
Loading
Personal Weather Stations






























Interactive Weather Map
Tropical Storm Tracking
New forecast layout! Learn more

10-Day Weather Forecast

Advertisements
Track Severe Weather on mobile